Baugh, Oklahoma
Current Conditions -  °F | °C
As of 6:55 PM on Saturday 25 Oct 2014 (Local Time) from KOWP Reporting Station
Clear Clear  
Wind Chill: 28°   Ceiling: Unl
Heat Index: 28°   Visibility: 10mi
Dew Point: 17°   Wind: 5mph
Humidity: 50%   Direction: 170°S
Pressure: 30"   Gusts: NA
Location:  36.248°N, 96.4789°W
Report Text: KOWP 252355Z AUTO 17004KT 10SM CLR 28/17 A3000 RMK AO2 T02800167 10324 20280
Loading
Personal Weather Stations






























Interactive Weather Map
Tropical Storm Tracking
New forecast layout! Learn more

10-Day Weather Forecast

Advertisements
Track Severe Weather on mobile